CZFM/ZFM METAR and TAF weather

Enter ICAO airport designator
Station Type Date Time Source
CZFM METAR 2022/11/27 00:00 UTC NOAA

CZFM 270000Z 35008KT 5SM -SN VV029 M15/M18 A3022 RMK SN8 LAST STFD OBS/ NXT 271500Z SLP238


Station Type Date Time Source
CZFM Decoded METAR 2022/11/27 00:00 UTC NOAA

Fort Mcpherson Airport, Canada (CZFM) 67-24N 134-51W
Nov 26, 2022 - 07:00 PM EST / 2022.11.27 0000 UTC
Wind: from the N (350 degrees) at 9 MPH (8 KT):0
Visibility: 5 mile(s):0
Sky conditions: obscured
Weather: light snow
Temperature: 5 F (-15 C)
Windchill: -9 F (-23 C):2
Dew Point: 0 F (-18 C)
Relative Humidity: 77%
Pressure (altimeter): 30.22 in. Hg (1023 hPa)
ob: CZFM 270000Z 35008KT 5SM -SN VV029 M15/M18 A3022 RMK SN8 LAST STFD OBS/ NXT 271500Z SLP238
cycle: 0

Station Type Date Time Source
CZFM TAF 2022/11/26 16:00 UTC NOAA

TAF CZFM 261540Z 2616/2624 32005KT 6SM -SN OVC025
TEMPO 2616/2624 2SM -SN OVC020
BECMG 2619/2621 35012G22KT
RMK NXT FCST BY 261900Z

Example: see airport list